createdAt,value
2022-12-06T00:02:52.773Z,18.17
2022-12-06T00:07:55.817Z,13.73
2022-12-06T00:12:58.664Z,14.75
2022-12-06T00:18:02.733Z,13.48
2022-12-06T00:23:05.527Z,15.35
2022-12-06T00:28:08.384Z,15.38
2022-12-06T00:33:12.501Z,16.50
2022-12-06T00:38:15.250Z,16.40
2022-12-06T00:43:18.031Z,17.08
2022-12-06T00:48:22.399Z,14.82
2022-12-06T00:53:25.698Z,15.50
2022-12-06T00:58:29.014Z,14.45
2022-12-06T01:03:35.248Z,15.48
2022-12-06T01:08:38.884Z,16.35
2022-12-06T01:13:44.065Z,23.65
2022-12-06T01:18:48.485Z,19.20
2022-12-06T01:23:53.034Z,18.17
2022-12-06T01:28:56.406Z,15.48
2022-12-06T01:34:00.507Z,15.63
2022-12-06T01:39:06.914Z,18.17
2022-12-06T01:44:41.076Z,15.13
2022-12-06T01:49:50.678Z,14.88
2022-12-06T01:54:54.428Z,16.25
2022-12-06T01:59:57.521Z,15.07
2022-12-06T02:05:03.679Z,14.32
2022-12-06T02:10:07.876Z,14.50
2022-12-06T02:15:11.802Z,13.25
2022-12-06T02:20:26.427Z,18.48
2022-12-06T02:26:22.719Z,15.27
2022-12-06T02:31:29.875Z,15.27
2022-12-06T02:36:39.742Z,18.85
2022-12-06T02:41:48.935Z,19.23
2022-12-06T02:46:55.563Z,16.88
2022-12-06T02:51:58.719Z,16.73
2022-12-06T02:57:01.476Z,14.77
2022-12-06T03:02:11.644Z,16.20
2022-12-06T03:07:26.759Z,15.07
2022-12-06T03:12:34.395Z,13.75
2022-12-06T03:17:48.101Z,14.15
2022-12-06T03:22:55.537Z,15.82
2022-12-06T03:28:01.740Z,14.98
2022-12-06T03:33:06.666Z,15.85
2022-12-06T03:38:15.523Z,15.95
2022-12-06T03:43:18.906Z,13.32
2022-12-06T03:48:30.392Z,12.70
2022-12-06T03:53:33.568Z,14.67
2022-12-06T03:58:36.379Z,12.65
2022-12-06T04:03:40.573Z,11.77
2022-12-06T04:08:43.512Z,15.18
2022-12-06T04:13:46.423Z,12.40
2022-12-06T04:18:50.565Z,13.35
2022-12-06T04:23:53.640Z,12.48
2022-12-06T04:29:13.998Z,12.75
2022-12-06T04:34:36.094Z,11.75
2022-12-06T04:39:38.838Z,15.50
2022-12-06T04:44:41.830Z,11.23
2022-12-06T04:49:46.116Z,14.55
2022-12-06T04:54:49.001Z,13.13
2022-12-06T04:59:51.775Z,12.75
2022-12-06T05:04:55.897Z,11.13
2022-12-06T05:09:58.971Z,15.65
2022-12-06T05:15:01.837Z,14.27
2022-12-06T05:20:07.928Z,19.30
2022-12-06T05:25:11.248Z,18.35
2022-12-06T05:30:14.764Z,16.85
2022-12-06T05:35:19.318Z,27.08
2022-12-06T05:40:22.229Z,40.70
2022-12-06T05:45:25.053Z,23.65
2022-12-06T05:50:29.328Z,38.25
2022-12-06T05:55:34.059Z,41.33
2022-12-06T06:00:36.892Z,51.78
2022-12-06T06:05:46.424Z,33.60
2022-12-06T06:10:49.233Z,42.97
2022-12-06T06:15:52.180Z,45.00
2022-12-06T06:21:00.161Z,44.88
2022-12-06T06:26:07.844Z,37.03
2022-12-06T06:31:10.824Z,52.83
2022-12-06T06:36:15.045Z,62.05
2022-12-06T06:41:17.931Z,41.72
2022-12-06T06:46:20.809Z,65.47
2022-12-06T06:51:25.075Z,96.15
2022-12-06T06:56:27.892Z,116.93
2022-12-06T07:01:30.802Z,63.65
2022-12-06T07:06:34.972Z,87.53
2022-12-06T07:11:37.802Z,84.68
2022-12-06T07:16:40.710Z,57.95
2022-12-06T07:21:44.924Z,129.48
2022-12-06T07:26:47.698Z,67.07
2022-12-06T07:31:50.512Z,125.43
2022-12-06T07:36:54.632Z,131.43
2022-12-06T07:42:11.288Z,126.68
2022-12-06T07:47:24.920Z,18.90
2022-12-06T07:52:31.825Z,113.35
2022-12-06T07:57:40.028Z,43.67
2022-12-06T08:02:46.064Z,82.00
2022-12-06T08:07:50.312Z,55.40
2022-12-06T08:12:53.921Z,43.63
2022-12-06T08:17:56.693Z,43.67
2022-12-06T08:23:00.826Z,34.95
2022-12-06T08:28:03.719Z,39.85
2022-12-06T08:33:06.491Z,39.10
2022-12-06T08:38:10.683Z,37.63
2022-12-06T08:43:13.492Z,44.17
2022-12-06T08:48:16.280Z,40.70
2022-12-06T08:53:20.386Z,44.05
2022-12-06T08:58:23.194Z,42.80
2022-12-06T09:03:26.073Z,35.17
2022-12-06T09:08:30.216Z,43.17
2022-12-06T09:13:33.048Z,41.60
2022-12-06T09:18:35.907Z,38.58
2022-12-06T09:23:40.489Z,32.95
2022-12-06T09:28:49.561Z,31.85
2022-12-06T09:33:53.064Z,34.20
2022-12-06T09:39:03.138Z,36.22
2022-12-06T09:44:25.303Z,34.78
2022-12-06T09:49:31.089Z,31.77
2022-12-06T09:54:52.634Z,31.10
2022-12-06T10:00:10.636Z,31.98
2022-12-06T10:05:28.630Z,27.95
2022-12-06T10:10:44.180Z,30.13
2022-12-06T10:15:56.280Z,29.02
2022-12-06T10:21:12.188Z,29.45
2022-12-06T10:26:19.255Z,28.42
2022-12-06T10:31:24.593Z,25.65
2022-12-06T10:36:44.656Z,23.42
2022-12-06T10:41:57.133Z,25.17
2022-12-06T10:47:06.557Z,25.83
2022-12-06T10:52:33.718Z,22.77
2022-12-06T10:57:45.923Z,24.85
2022-12-06T11:02:57.379Z,17.35
2022-12-06T11:08:07.278Z,27.05
2022-12-06T11:13:21.568Z,24.08
2022-12-06T11:18:29.035Z,21.73
2022-12-06T11:23:40.223Z,19.40
2022-12-06T11:28:55.428Z,22.10
2022-12-06T11:34:00.153Z,20.80
2022-12-06T11:39:04.641Z,15.43
2022-12-06T11:44:15.064Z,15.68
2022-12-06T11:49:22.630Z,15.90
2022-12-06T11:54:29.931Z,16.30
2022-12-06T11:59:34.128Z,15.50
2022-12-06T12:04:40.539Z,15.13
2022-12-06T12:09:50.247Z,15.20
2022-12-06T12:14:58.399Z,17.05
2022-12-06T12:20:05.591Z,13.00
2022-12-06T12:25:24.762Z,13.05
2022-12-06T12:30:36.218Z,14.07
2022-12-06T12:35:41.791Z,18.05
2022-12-06T12:40:47.314Z,17.95
2022-12-06T12:46:17.831Z,17.27
2022-12-06T12:51:24.434Z,15.82
2022-12-06T12:56:27.664Z,16.77
2022-12-06T13:01:39.546Z,20.00
2022-12-06T13:06:49.159Z,18.95
2022-12-06T13:11:57.844Z,23.02
2022-12-06T13:17:08.247Z,18.02
2022-12-06T13:22:17.136Z,18.00
2022-12-06T13:27:24.002Z,18.77
2022-12-06T13:32:34.527Z,20.40
2022-12-06T13:37:43.216Z,20.63
2022-12-06T13:42:47.153Z,23.45
2022-12-06T13:47:52.115Z,18.38
2022-12-06T13:53:01.570Z,23.33
2022-12-06T13:58:37.438Z,24.45
2022-12-06T14:03:42.070Z,24.63
2022-12-06T14:08:46.859Z,22.60
2022-12-06T14:13:59.896Z,23.95
2022-12-06T14:19:15.539Z,24.77
2022-12-06T14:24:30.620Z,27.85
2022-12-06T14:29:33.444Z,22.23
2022-12-06T14:34:37.835Z,20.63
2022-12-06T14:39:40.765Z,21.23
2022-12-06T14:44:49.128Z,25.63
2022-12-06T14:50:13.072Z,24.27
2022-12-06T14:55:19.690Z,20.65
2022-12-06T15:00:27.396Z,22.27
2022-12-06T15:05:34.092Z,21.25
2022-12-06T15:10:36.879Z,23.20
2022-12-06T15:15:41.611Z,19.58
2022-12-06T15:20:45.791Z,20.20
2022-12-06T15:25:48.574Z,22.48
2022-12-06T15:30:51.981Z,21.52
2022-12-06T15:35:58.208Z,19.05
2022-12-06T15:41:01.022Z,17.55
2022-12-06T15:46:05.289Z,16.23
2022-12-06T15:51:20.171Z,16.70
2022-12-06T15:56:25.775Z,16.10
2022-12-06T16:01:32.564Z,19.60
2022-12-06T16:06:36.693Z,15.05
2022-12-06T16:11:39.667Z,17.90
2022-12-06T16:16:43.744Z,14.82
2022-12-06T16:21:58.578Z,15.93
2022-12-06T16:27:01.343Z,15.07
2022-12-06T16:32:04.276Z,15.57
2022-12-06T16:37:08.444Z,14.50
2022-12-06T16:42:11.200Z,13.80
2022-12-06T16:47:14.396Z,15.07
2022-12-06T16:52:18.624Z,19.95
2022-12-06T16:57:21.403Z,20.40
2022-12-06T17:02:27.844Z,19.13
2022-12-06T17:07:31.946Z,17.88
2022-12-06T17:12:34.731Z,19.30
2022-12-06T17:17:37.446Z,19.30
2022-12-06T17:22:42.199Z,21.40
2022-12-06T17:27:44.987Z,18.67
2022-12-06T17:32:48.650Z,17.67
2022-12-06T17:37:53.926Z,17.98
2022-12-06T17:43:02.743Z,15.93
2022-12-06T17:48:06.080Z,18.38
2022-12-06T17:53:10.809Z,18.33
2022-12-06T17:58:13.619Z,21.00
2022-12-06T18:03:16.472Z,20.00
2022-12-06T18:08:20.724Z,22.52
2022-12-06T18:13:24.663Z,20.85
2022-12-06T18:18:27.465Z,21.58
2022-12-06T18:23:31.597Z,21.65
2022-12-06T18:28:34.345Z,21.77
2022-12-06T18:33:38.582Z,25.05
2022-12-06T18:38:43.530Z,24.75
2022-12-06T18:43:46.904Z,25.30
2022-12-06T18:48:51.021Z,25.48
2022-12-06T18:53:57.734Z,24.30
2022-12-06T18:59:01.783Z,23.88
2022-12-06T19:04:06.366Z,25.02
2022-12-06T19:09:13.376Z,21.00
2022-12-06T19:14:17.017Z,24.38
2022-12-06T19:19:21.268Z,19.52
2022-12-06T19:24:28.939Z,29.90
2022-12-06T19:29:31.964Z,27.27
2022-12-06T19:34:34.745Z,26.27
2022-12-06T19:39:38.996Z,25.25
2022-12-06T19:44:41.944Z,21.23
2022-12-06T19:49:44.767Z,22.02
2022-12-06T19:54:48.960Z,22.38
2022-12-06T19:59:54.220Z,22.27
2022-12-06T20:04:56.954Z,23.80
2022-12-06T20:10:01.442Z,25.15
2022-12-06T20:15:04.972Z,29.65
2022-12-06T20:20:09.180Z,22.73
2022-12-06T20:25:13.327Z,25.20
2022-12-06T20:30:16.355Z,21.92
2022-12-06T20:35:19.242Z,27.35
2022-12-06T20:40:28.391Z,25.13
2022-12-06T20:45:34.132Z,24.23
2022-12-06T20:50:39.703Z,25.58
2022-12-06T20:55:43.847Z,36.22
2022-12-06T21:00:48.400Z,26.05
2022-12-06T21:05:58.960Z,28.10
2022-12-06T21:16:29.456Z,32.45
2022-12-06T21:21:34.350Z,30.77
2022-12-06T21:26:39.034Z,28.20
2022-12-06T21:31:41.831Z,25.88
2022-12-06T21:36:45.016Z,33.35
2022-12-06T21:41:49.935Z,26.27
2022-12-06T21:46:53.676Z,26.88
2022-12-06T21:52:03.137Z,29.55
2022-12-06T21:57:10.401Z,29.30
2022-12-06T22:02:13.593Z,29.42
2022-12-06T22:07:16.557Z,29.48
2022-12-06T22:12:20.802Z,29.77
2022-12-06T22:17:23.685Z,29.67
2022-12-06T22:22:26.555Z,31.60
2022-12-06T22:27:30.761Z,29.92
2022-12-06T22:32:34.403Z,29.13
2022-12-06T22:37:37.180Z,22.05
2022-12-06T22:42:41.332Z,23.50
2022-12-06T22:47:44.207Z,20.45
2022-12-06T22:52:46.969Z,18.15
2022-12-06T22:57:51.220Z,18.92
2022-12-06T23:02:54.048Z,20.85
2022-12-06T23:07:57.397Z,16.98
2022-12-06T23:13:01.679Z,24.20
2022-12-06T23:18:04.606Z,18.40
2022-12-06T23:23:07.396Z,15.63
2022-12-06T23:28:11.588Z,21.75
2022-12-06T23:33:17.044Z,21.90
2022-12-06T23:38:23.949Z,18.90
2022-12-06T23:43:28.073Z,18.55
2022-12-06T23:48:31.431Z,25.50
2022-12-06T23:53:35.610Z,22.15
2022-12-06T23:58:39.964Z,33.70
